Time;durP1;ratioP1;P1;durP2;ratioP2;P2;SDS_P1;SDS_P2;PMS_P1;PMS_P2;Temp;Humidity;BMP_temperature;BMP_pressure;BME280_temperature;BME280_humidity;BME280_pressure;Samples;Min_cycle;Max_cycle;Signal;HPM_P1;HPM_P2
2021/07/31 00:00:04;;;;;;;7.85;1.73;;;18.70;68.00;;;;;;5073304;28;20116;-74
2021/07/31 00:02:30;;;;;;;6.90;2.30;;;18.70;68.30;;;;;;5068310;28;20048;-74
2021/07/31 00:04:55;;;;;;;8.05;1.52;;;18.70;68.40;;;;;;5068690;28;20037;-74
2021/07/31 00:07:21;;;;;;;8.68;2.17;;;18.70;68.30;;;;;;5070240;28;20106;-75
2021/07/31 00:09:47;;;;;;;9.35;2.15;;;18.70;68.50;;;;;;5078571;28;20033;-74
2021/07/31 00:12:13;;;;;;;6.28;1.10;;;18.70;68.70;;;;;;5076985;28;20397;-74
2021/07/31 00:14:38;;;;;;;12.70;4.63;;;18.70;68.30;;;;;;5090804;28;20473;-75
2021/07/31 00:17:06;;;;;;;8.88;2.60;;;18.70;68.30;;;;;;5078174;28;20032;-74
2021/07/31 00:19:32;;;;;;;6.18;1.63;;;18.70;68.60;;;;;;5058438;28;20060;-74
2021/07/31 00:21:58;;;;;;;6.10;1.40;;;18.70;69.20;;;;;;5072797;28;20060;-74
2021/07/31 00:24:24;;;;;;;3.08;1.30;;;18.70;70.20;;;;;;5082750;28;20032;-74
2021/07/31 00:26:49;;;;;;;5.07;1.80;;;18.70;70.50;;;;;;5057003;28;20036;-74
2021/07/31 00:29:15;;;;;;;6.70;1.65;;;18.60;70.70;;;;;;5040418;28;20029;-74
2021/07/31 00:31:40;;;;;;;7.90;1.40;;;18.60;70.80;;;;;;5070106;28;20190;-74
2021/07/31 00:34:06;;;;;;;5.63;1.35;;;18.50;70.40;;;;;;5061253;28;20556;-74
2021/07/31 00:36:32;;;;;;;7.45;1.83;;;18.50;70.20;;;;;;5075362;28;20048;-74
2021/07/31 00:38:58;;;;;;;9.95;1.77;;;18.50;70.00;;;;;;5076918;28;20056;-74
2021/07/31 00:41:23;;;;;;;5.45;1.55;;;18.50;70.10;;;;;;5076985;28;20044;-74
2021/07/31 00:43:49;;;;;;;6.82;1.40;;;18.50;70.20;;;;;;5077002;28;20480;-74
2021/07/31 00:46:16;;;;;;;4.60;1.40;;;18.50;70.30;;;;;;5065819;28;20085;-74
2021/07/31 00:48:42;;;;;;;8.00;1.63;;;18.50;69.90;;;;;;5076177;28;20051;-74
2021/07/31 00:51:07;;;;;;;6.78;1.83;;;18.50;69.90;;;;;;5076709;28;20035;-74
2021/07/31 00:53:33;;;;;;;4.68;2.03;;;18.50;70.00;;;;;;5058188;28;20021;-75
2021/07/31 00:55:59;;;;;;;4.55;1.30;;;18.50;69.70;;;;;;5073952;28;20109;-74
2021/07/31 00:58:27;;;;;;;5.38;1.70;;;18.50;69.70;;;;;;5078019;28;20477;-74
2021/07/31 01:00:53;;;;;;;6.05;1.25;;;18.50;69.80;;;;;;5078010;28;20029;-74
2021/07/31 01:03:18;;;;;;;6.85;1.80;;;18.60;69.90;;;;;;5077694;28;20060;-74
2021/07/31 01:05:44;;;;;;;6.78;1.98;;;18.50;69.90;;;;;;5077272;28;20032;-74
2021/07/31 01:08:10;;;;;;;3.97;1.05;;;18.50;70.00;;;;;;5075765;28;20380;-74
2021/07/31 01:10:36;;;;;;;6.38;1.20;;;18.40;70.10;;;;;;5074357;28;20036;-74
2021/07/31 01:13:03;;;;;;;4.97;1.75;;;18.50;70.50;;;;;;5074934;28;20043;-74
2021/07/31 01:15:29;;;;;;;7.90;1.67;;;18.40;70.90;;;;;;5074263;28;20029;-74
2021/07/31 01:17:55;;;;;;;5.65;1.50;;;18.40;70.60;;;;;;5066174;28;20040;-74
2021/07/31 01:20:23;;;;;;;5.40;1.63;;;18.40;70.70;;;;;;5074609;28;20028;-75
2021/07/31 01:22:49;;;;;;;6.07;1.77;;;18.40;70.80;;;;;;5057007;28;20431;-74
2021/07/31 01:25:15;;;;;;;6.55;1.65;;;18.40;71.00;;;;;;5073856;28;20029;-74
2021/07/31 01:27:40;;;;;;;6.95;1.65;;;18.40;71.00;;;;;;5073205;28;20031;-74
2021/07/31 01:30:07;;;;;;;7.50;1.63;;;18.40;71.30;;;;;;5074507;28;20027;-74
2021/07/31 01:32:33;;;;;;;5.32;1.70;;;18.40;71.40;;;;;;5074473;28;20394;-74
2021/07/31 01:34:58;;;;;;;6.90;1.58;;;18.30;71.60;;;;;;5073729;28;20050;-74
2021/07/31 01:37:24;;;;;;;6.18;1.65;;;18.30;71.60;;;;;;5055874;28;20036;-74
2021/07/31 01:39:50;;;;;;;10.65;2.10;;;18.20;71.80;;;;;;5073028;28;20374;-74
2021/07/31 01:42:16;;;;;;;6.97;1.60;;;18.20;72.00;;;;;;5072666;28;20354;-74
2021/07/31 01:44:42;;;;;;;3.45;1.60;;;18.30;71.80;;;;;;5072082;28;20078;-73
2021/07/31 01:47:08;;;;;;;7.55;1.58;;;18.20;72.00;;;;;;5073596;28;20479;-74
2021/07/31 01:49:33;;;;;;;9.02;1.40;;;18.20;72.00;;;;;;5070452;28;20032;-74
2021/07/31 01:51:59;;;;;;;4.93;1.60;;;18.20;72.20;;;;;;5063744;28;20025;-74
2021/07/31 01:54:25;;;;;;;9.68;1.83;;;18.10;72.40;;;;;;5072434;28;20033;-74
2021/07/31 01:56:51;;;;;;;8.88;1.85;;;18.10;72.30;;;;;;5088918;28;20028;-74
2021/07/31 01:59:17;;;;;;;11.15;2.72;;;18.10;72.40;;;;;;5073528;28;20032;-74
2021/07/31 02:01:42;;;;;;;6.82;1.92;;;18.10;72.60;;;;;;5067164;28;20017;-74
2021/07/31 02:04:08;;;;;;;6.97;1.70;;;18.10;72.70;;;;;;5061948;28;20070;-74
2021/07/31 02:06:34;;;;;;;5.65;2.00;;;18.20;73.60;;;;;;5073732;28;20056;-74
2021/07/31 02:08:59;;;;;;;9.93;2.00;;;18.10;72.90;;;;;;5072261;28;20031;-74
2021/07/31 02:11:25;;;;;;;7.30;1.98;;;18.10;73.70;;;;;;5073893;28;20567;-74
2021/07/31 02:13:51;;;;;;;9.27;2.08;;;18.10;72.90;;;;;;5066602;28;20064;-74
2021/07/31 02:16:26;;;;;;;7.82;1.95;;;18.10;73.10;;;;;;5071330;28;20059;-74
2021/07/31 02:18:53;;;;;;;5.07;1.65;;;18.10;73.40;;;;;;5062567;28;20064;-74
2021/07/31 02:21:20;;;;;;;7.30;1.88;;;18.10;73.30;;;;;;5059502;28;20033;-74
2021/07/31 02:23:46;;;;;;;7.15;1.70;;;18.10;73.20;;;;;;5065112;28;20086;-74
2021/07/31 02:26:11;;;;;;;7.35;1.77;;;18.10;73.80;;;;;;5073367;28;20029;-74
2021/07/31 02:28:37;;;;;;;6.68;2.15;;;18.10;73.10;;;;;;5072817;28;20477;-74
2021/07/31 02:31:03;;;;;;;11.80;2.40;;;18.10;73.20;;;;;;5072039;28;20036;-75
2021/07/31 02:33:28;;;;;;;7.93;2.88;;;18.10;73.20;;;;;;5073221;28;20043;-74
2021/07/31 02:35:54;;;;;;;7.38;2.30;;;18.20;73.50;;;;;;5091251;28;20024;-83
2021/07/31 02:38:20;;;;;;;7.93;2.22;;;18.20;73.40;;;;;;5075331;28;20503;-84
2021/07/31 02:40:45;;;;;;;5.10;2.00;;;18.10;73.20;;;;;;5075135;28;20033;-84
2021/07/31 02:43:11;;;;;;;9.23;2.17;;;18.10;73.20;;;;;;5075023;28;20112;-85
2021/07/31 02:45:36;;;;;;;9.32;2.55;;;18.10;73.50;;;;;;5075228;28;20027;-84
2021/07/31 02:48:04;;;;;;;8.35;2.60;;;18.10;73.70;;;;;;5074856;28;20033;-84
2021/07/31 02:50:30;;;;;;;8.05;3.10;;;18.10;73.70;;;;;;5075157;28;20029;-83
2021/07/31 02:52:55;;;;;;;8.93;2.10;;;18.10;73.80;;;;;;5073586;28;20025;-84
2021/07/31 02:55:21;;;;;;;6.93;2.60;;;18.10;73.90;;;;;;5074491;28;20029;-84
2021/07/31 02:57:46;;;;;;;7.15;2.10;;;18.10;73.90;;;;;;5073009;28;20078;-84
2021/07/31 03:00:12;;;;;;;5.50;2.42;;;18.10;73.90;;;;;;5074946;28;20067;-84
2021/07/31 03:02:38;;;;;;;6.75;1.95;;;18.10;74.10;;;;;;5074003;28;20044;-84
2021/07/31 03:05:04;;;;;;;6.45;2.08;;;18.10;74.00;;;;;;5074349;28;20025;-84
2021/07/31 03:07:32;;;;;;;7.95;2.22;;;18.00;73.90;;;;;;5073331;28;20055;-83
2021/07/31 03:09:59;;;;;;;7.57;2.55;;;18.10;73.90;;;;;;5074301;28;20021;-84
2021/07/31 03:12:24;;;;;;;11.52;2.13;;;18.10;74.00;;;;;;5073296;28;20495;-84
2021/07/31 03:14:50;;;;;;;8.88;2.10;;;18.00;74.00;;;;;;5073897;28;20041;-84
2021/07/31 03:17:17;;;;;;;6.43;2.28;;;18.00;74.20;;;;;;5072562;28;20497;-85
2021/07/31 03:19:43;;;;;;;6.68;2.30;;;17.90;74.30;;;;;;5073701;28;20170;-84
2021/07/31 03:22:09;;;;;;;6.70;2.20;;;17.90;74.50;;;;;;5072407;28;20110;-85
2021/07/31 03:24:35;;;;;;;8.77;2.03;;;17.90;74.60;;;;;;5072146;28;20116;-84
2021/07/31 03:27:00;;;;;;;8.15;2.38;;;17.90;74.70;;;;;;5055329;28;20519;-85
2021/07/31 03:29:26;;;;;;;10.10;2.40;;;17.80;74.80;;;;;;5073291;28;20025;-83
2021/07/31 03:31:52;;;;;;;7.45;1.98;;;17.80;75.00;;;;;;5071545;28;20103;-84
2021/07/31 03:34:21;;;;;;;6.55;2.00;;;17.80;75.30;;;;;;5073646;28;20027;-84
2021/07/31 03:36:51;;;;;;;5.38;1.70;;;17.70;75.40;;;;;;5072252;28;20024;-84
2021/07/31 03:39:21;;;;;;;7.00;1.95;;;17.70;75.40;;;;;;5073180;28;20032;-84
2021/07/31 03:41:47;;;;;;;6.53;1.85;;;17.80;75.50;;;;;;5073886;28;20104;-84
2021/07/31 03:44:13;;;;;;;7.10;2.33;;;17.80;75.40;;;;;;5072112;28;20124;-84
2021/07/31 03:46:43;;;;;;;7.90;2.00;;;17.80;75.60;;;;;;5072118;28;20025;-84
2021/07/31 03:49:09;;;;;;;5.35;2.10;;;17.80;75.60;;;;;;5054484;28;20051;-84
2021/07/31 03:51:35;;;;;;;3.80;1.63;;;17.80;75.60;;;;;;5051895;28;20466;-84
2021/07/31 03:54:00;;;;;;;11.32;2.00;;;17.80;75.60;;;;;;5063766;28;20036;-85
2021/07/31 03:56:26;;;;;;;5.43;1.85;;;17.80;75.60;;;;;;5084039;28;20032;-84
2021/07/31 03:58:53;;;;;;;11.63;2.58;;;17.70;75.70;;;;;;5070430;28;20501;-84
2021/07/31 04:01:26;;;;;;;6.57;2.03;;;17.70;75.80;;;;;;5063791;28;20366;-84
2021/07/31 04:03:53;;;;;;;9.23;2.17;;;17.70;75.80;;;;;;5079614;28;20423;-84
2021/07/31 04:06:19;;;;;;;5.20;1.80;;;17.80;75.80;;;;;;5079942;28;20435;-85
2021/07/31 04:08:45;;;;;;;6.68;2.13;;;17.70;75.90;;;;;;5075568;28;20025;-84
2021/07/31 04:11:10;;;;;;;8.00;2.03;;;17.70;76.00;;;;;;5075947;28;20513;-84
2021/07/31 04:13:36;;;;;;;6.13;2.10;;;17.70;76.10;;;;;;5068592;28;20099;-84
2021/07/31 04:16:07;;;;;;;4.05;1.75;;;17.80;76.20;;;;;;5069095;28;20035;-84
2021/07/31 04:18:33;;;;;;;7.05;1.85;;;17.70;76.20;;;;;;5078197;28;20039;-84
2021/07/31 04:21:00;;;;;;;6.85;1.77;;;17.70;76.20;;;;;;5080039;28;20036;-84
2021/07/31 04:23:26;;;;;;;10.68;2.28;;;17.70;76.30;;;;;;5075231;28;20445;-84
2021/07/31 04:25:51;;;;;;;7.15;2.03;;;17.70;76.40;;;;;;5074751;28;20054;-84
2021/07/31 04:28:17;;;;;;;6.43;2.10;;;17.70;76.60;;;;;;5091596;28;20032;-85
2021/07/31 04:30:42;;;;;;;8.80;2.00;;;17.70;76.70;;;;;;5077602;28;20024;-84
2021/07/31 04:33:08;;;;;;;6.18;1.85;;;17.70;76.80;;;;;;5063432;28;20112;-84
2021/07/31 04:35:33;;;;;;;6.95;2.40;;;17.70;76.80;;;;;;5077586;28;20068;-85
2021/07/31 04:38:02;;;;;;;11.38;2.33;;;17.70;76.80;;;;;;5059897;28;20107;-85
2021/07/31 04:40:27;;;;;;;6.78;2.28;;;17.70;76.90;;;;;;5072212;28;20111;-84
2021/07/31 04:42:53;;;;;;;6.78;2.22;;;17.70;77.20;;;;;;5074674;28;20067;-83
2021/07/31 04:45:18;;;;;;;8.93;2.20;;;17.70;77.30;;;;;;5079184;28;20025;-84
2021/07/31 04:47:44;;;;;;;5.38;2.22;;;17.70;77.50;;;;;;5081210;28;20025;-83
2021/07/31 04:50:13;;;;;;;8.65;2.42;;;17.60;77.50;;;;;;5081122;28;20056;-84
2021/07/31 04:52:38;;;;;;;;;;;17.60;77.70;;;;;;5081559;28;20032;-84
2021/07/31 04:55:05;;;;;;;7.72;2.40;;;17.60;77.70;;;;;;5067816;28;20292;-84
2021/07/31 04:57:30;;;;;;;12.00;2.65;;;17.60;78.10;;;;;;5079370;28;20157;-83
2021/07/31 04:59:56;;;;;;;8.27;2.75;;;17.60;78.20;;;;;;5077247;28;20603;-84
2021/07/31 05:02:22;;;;;;;6.40;2.38;;;17.60;78.20;;;;;;5079678;28;20037;-84
2021/07/31 05:04:47;;;;;;;8.35;2.35;;;17.60;78.10;;;;;;5081452;28;20044;-84
2021/07/31 05:07:13;;;;;;;5.35;2.53;;;17.60;78.00;;;;;;5082452;28;20021;-84
2021/07/31 05:09:38;;;;;;;11.73;3.00;;;17.60;77.90;;;;;;5099420;28;20027;-84
2021/07/31 05:12:04;;;;;;;7.90;2.38;;;17.60;77.90;;;;;;5076029;28;20505;-84
2021/07/31 05:14:30;;;;;;;9.75;2.60;;;17.60;78.10;;;;;;5078389;28;20040;-84
2021/07/31 05:16:55;;;;;;;7.35;2.42;;;17.60;78.40;;;;;;5065152;28;20028;-84
2021/07/31 05:19:21;;;;;;;9.77;2.63;;;17.60;78.40;;;;;;5058897;28;20025;-83
2021/07/31 05:21:47;;;;;;;10.38;2.60;;;17.60;78.40;;;;;;5058613;28;20037;-84
2021/07/31 05:24:13;;;;;;;6.57;2.25;;;17.70;78.40;;;;;;5078818;28;20067;-85
2021/07/31 05:26:39;;;;;;;7.88;2.15;;;17.70;78.50;;;;;;5077972;28;20389;-84
2021/07/31 05:29:08;;;;;;;6.18;2.25;;;17.70;78.40;;;;;;5093935;28;20136;-83
2021/07/31 05:31:34;;;;;;;;;;;17.70;78.60;;;;;;5073588;28;20021;-84
2021/07/31 05:34:01;;;;;;;11.55;2.30;;;17.70;78.60;;;;;;5058825;28;19905;-84
2021/07/31 05:36:27;;;;;;;6.18;2.72;;;17.60;78.50;;;;;;5057213;28;20028;-84
2021/07/31 05:38:52;;;;;;;11.32;3.95;;;17.60;78.70;;;;;;5057684;28;20414;-84
2021/07/31 05:41:21;;;;;;;9.45;3.08;;;17.60;78.70;;;;;;5075018;28;20033;-83
2021/07/31 05:43:47;;;;;;;;;;;17.60;78.70;;;;;;5077420;28;20028;-84
2021/07/31 05:46:19;;;;;;;9.38;2.65;;;17.60;78.70;;;;;;5077510;28;19909;-84
2021/07/31 05:48:46;;;;;;;7.85;2.40;;;17.60;78.60;;;;;;5077592;28;20029;-84
2021/07/31 05:51:13;;;;;;;8.68;4.13;;;17.60;78.70;;;;;;5077124;28;20382;-84
2021/07/31 05:53:39;;;;;;;8.15;3.33;;;17.60;79.00;;;;;;5076102;28;20481;-84
2021/07/31 05:56:09;;;;;;;7.68;2.53;;;17.60;78.80;;;;;;5073827;28;20074;-84
2021/07/31 05:58:36;;;;;;;8.13;3.13;;;17.60;78.90;;;;;;5075653;28;20481;-84
2021/07/31 06:01:04;;;;;;;7.45;2.50;;;17.70;79.10;;;;;;5076051;28;20047;-84
2021/07/31 06:03:30;;;;;;;9.27;2.88;;;17.60;79.10;;;;;;5075190;28;20055;-81
2021/07/31 06:05:59;;;;;;;6.90;2.80;;;17.60;79.10;;;;;;5074594;28;20045;-81
2021/07/31 06:08:25;;;;;;;5.85;2.55;;;17.60;79.00;;;;;;5055151;28;20037;-81
2021/07/31 06:10:57;;;;;;;6.85;2.55;;;17.60;78.90;;;;;;5065056;28;20028;-80
2021/07/31 06:13:23;;;;;;;8.32;2.92;;;17.70;79.00;;;;;;5073689;28;20028;-81
2021/07/31 06:15:48;;;;;;;10.07;2.55;;;17.70;79.10;;;;;;5070449;28;20055;-84
2021/07/31 06:18:14;;;;;;;4.93;1.90;;;17.80;79.00;;;;;;5071269;28;20025;-82
2021/07/31 06:20:40;;;;;;;9.48;2.30;;;17.80;78.80;;;;;;5073665;28;20036;-84
2021/07/31 06:23:05;;;;;;;9.00;2.40;;;17.90;78.60;;;;;;5074096;28;20092;-73
2021/07/31 06:25:31;;;;;;;8.57;2.20;;;18.00;78.10;;;;;;5072235;28;20477;-84
2021/07/31 06:27:57;;;;;;;13.55;2.80;;;18.00;77.80;;;;;;5070103;28;20032;-83
2021/07/31 06:30:22;;;;;;;9.68;2.90;;;18.10;77.90;;;;;;5073624;28;20025;-85
2021/07/31 06:32:48;;;;;;;10.18;2.67;;;18.10;77.60;;;;;;5067633;28;20385;-82
2021/07/31 06:35:15;;;;;;;5.68;2.50;;;18.20;78.00;;;;;;5063841;28;20021;-81
2021/07/31 06:37:40;;;;;;;8.75;2.80;;;18.20;77.80;;;;;;5066401;28;20761;-82
2021/07/31 06:40:07;;;;;;;6.40;2.08;;;18.20;77.60;;;;;;5075118;28;20066;-81
2021/07/31 06:42:33;;;;;;;5.57;2.50;;;18.20;77.80;;;;;;5073468;28;20060;-82
2021/07/31 06:44:58;;;;;;;7.78;2.55;;;18.20;77.70;;;;;;5080613;28;20028;-82
2021/07/31 06:47:24;;;;;;;8.98;2.53;;;18.20;77.90;;;;;;5074944;28;20033;-82
2021/07/31 06:49:49;;;;;;;5.78;2.22;;;18.30;78.10;;;;;;5075163;28;20492;-82
2021/07/31 06:52:15;;;;;;;8.85;2.35;;;18.30;77.70;;;;;;5074132;28;20044;-82
2021/07/31 06:54:41;;;;;;;9.02;2.50;;;18.30;77.90;;;;;;5075181;28;20082;-82
2021/07/31 06:57:10;;;;;;;6.90;2.88;;;18.50;77.70;;;;;;5073124;28;20560;-83
2021/07/31 06:59:36;;;;;;;6.28;2.45;;;18.70;77.40;;;;;;5073347;28;20044;-83
2021/07/31 07:02:02;;;;;;;6.90;2.72;;;18.80;76.70;;;;;;5074148;28;20029;-82
2021/07/31 07:04:28;;;;;;;7.90;2.60;;;18.80;76.30;;;;;;5072696;28;20131;-82
2021/07/31 07:06:53;;;;;;;8.30;2.30;;;18.80;76.50;;;;;;5072178;28;20043;-82
2021/07/31 07:09:19;;;;;;;6.57;2.40;;;18.80;76.30;;;;;;5070860;28;20029;-82
2021/07/31 07:11:44;;;;;;;9.35;2.50;;;18.80;76.20;;;;;;5071493;28;20040;-82
2021/07/31 07:14:10;;;;;;;8.85;2.20;;;18.80;76.40;;;;;;5073934;28;20065;-84
2021/07/31 07:16:36;;;;;;;5.25;2.20;;;18.80;76.10;;;;;;5073819;28;20032;-84
2021/07/31 07:19:02;;;;;;;5.15;2.30;;;18.90;75.90;;;;;;5073254;28;20024;-84
2021/07/31 07:21:28;;;;;;;13.48;2.92;;;19.00;75.60;;;;;;5061253;28;20054;-85
2021/07/31 07:23:54;;;;;;;6.40;2.33;;;19.00;75.40;;;;;;5053447;28;20040;-84
2021/07/31 07:26:20;;;;;;;5.45;2.00;;;19.00;74.80;;;;;;5061944;28;20028;-84
2021/07/31 07:28:45;;;;;;;8.50;2.30;;;19.00;75.10;;;;;;5073648;28;20422;-84
2021/07/31 07:31:12;;;;;;;8.48;2.03;;;19.00;75.50;;;;;;5072114;28;20032;-84
2021/07/31 07:33:38;;;;;;;4.97;1.98;;;19.00;75.50;;;;;;5070540;28;20393;-83
2021/07/31 07:36:11;;;;;;;6.75;2.30;;;18.90;75.60;;;;;;5086162;28;20031;-83
2021/07/31 07:38:38;;;;;;;6.45;2.20;;;18.90;75.60;;;;;;5093982;28;20063;-84
2021/07/31 07:41:08;;;;;;;9.63;2.40;;;18.90;75.40;;;;;;5075488;28;20020;-84
2021/07/31 07:43:34;;;;;;;6.80;2.30;;;18.90;75.90;;;;;;5071985;28;20550;-82
2021/07/31 07:45:59;;;;;;;6.82;2.63;;;18.90;75.70;;;;;;5072484;28;20032;-83
2021/07/31 07:48:25;;;;;;;8.32;2.33;;;19.00;75.40;;;;;;5073214;28;20036;-84
2021/07/31 07:50:51;;;;;;;7.75;2.40;;;19.20;75.50;;;;;;5073403;28;20039;-83
2021/07/31 07:53:17;;;;;;;8.18;2.30;;;19.30;74.80;;;;;;5073150;28;20059;-82
2021/07/31 07:55:42;;;;;;;5.78;2.20;;;19.40;74.70;;;;;;5072527;28;20056;-83
2021/07/31 07:58:09;;;;;;;5.25;2.05;;;19.60;73.50;;;;;;5072352;28;20051;-84
2021/07/31 08:00:36;;;;;;;8.10;2.10;;;19.60;73.40;;;;;;5073546;28;20508;-84
2021/07/31 08:03:01;;;;;;;8.82;2.85;;;19.60;74.60;;;;;;5073673;28;20478;-83
2021/07/31 08:05:27;;;;;;;7.78;2.30;;;19.60;73.80;;;;;;5073810;28;20034;-83
2021/07/31 08:07:53;;;;;;;12.55;2.30;;;19.60;73.20;;;;;;5073840;28;20021;-83
2021/07/31 08:10:19;;;;;;;7.30;2.10;;;19.70;72.90;;;;;;5088951;28;20039;-82
2021/07/31 08:12:44;;;;;;;4.45;1.98;;;19.70;73.80;;;;;;5065343;28;20036;-82
2021/07/31 08:15:11;;;;;;;11.80;2.40;;;19.90;72.80;;;;;;5072117;28;20469;-86
2021/07/31 08:17:37;;;;;;;8.93;2.00;;;19.90;72.90;;;;;;5074203;28;20472;-86
2021/07/31 08:20:04;;;;;;;6.88;1.90;;;19.90;72.80;;;;;;5067481;28;20044;-87
2021/07/31 08:22:30;;;;;;;6.18;2.30;;;19.90;72.10;;;;;;5076988;28;20035;-86
2021/07/31 08:24:55;;;;;;;7.88;2.33;;;19.90;72.40;;;;;;5069839;28;20107;-86
2021/07/31 08:27:21;;;;;;;5.65;2.08;;;19.80;72.70;;;;;;5067225;28;20082;-86
2021/07/31 08:29:47;;;;;;;8.63;2.40;;;19.90;72.70;;;;;;5076643;28;20020;-86
2021/07/31 08:32:12;;;;;;;7.10;2.35;;;20.00;72.50;;;;;;5068839;28;20100;-86
2021/07/31 08:34:38;;;;;;;5.38;2.40;;;20.00;72.40;;;;;;5063557;28;20479;-85
2021/07/31 08:37:04;;;;;;;5.57;2.30;;;20.00;72.10;;;;;;5075674;28;20016;-85
2021/07/31 08:39:30;;;;;;;9.13;1.80;;;20.10;72.00;;;;;;5075968;28;20029;-81
2021/07/31 08:41:55;;;;;;;6.38;2.58;;;20.20;71.90;;;;;;5076788;28;20023;-80
2021/07/31 08:44:21;;;;;;;4.05;1.77;;;20.20;70.90;;;;;;5076360;28;20033;-80
2021/07/31 08:46:50;;;;;;;9.30;2.40;;;20.20;70.80;;;;;;5075887;28;20031;-80
2021/07/31 08:49:19;;;;;;;6.10;1.80;;;20.20;71.00;;;;;;5075258;28;20393;-80
2021/07/31 08:51:45;;;;;;;;;;;20.30;70.90;;;;;;5075301;28;20025;-80
2021/07/31 08:54:11;;;;;;;5.55;1.83;;;20.30;70.30;;;;;;5076128;28;19915;-79
2021/07/31 08:56:41;;;;;;;5.28;2.17;;;20.30;70.40;;;;;;5054576;28;20033;-79
2021/07/31 08:59:07;;;;;;;5.45;1.90;;;20.30;69.80;;;;;;5059266;28;20020;-81
2021/07/31 09:01:32;;;;;;;5.68;2.17;;;20.20;69.80;;;;;;5075804;28;20058;-80
2021/07/31 09:04:10;;;;;;;6.60;1.88;;;20.20;69.90;;;;;;5074574;28;20098;-80
2021/07/31 09:06:36;;;;;;;4.40;1.95;;;20.30;70.50;;;;;;5075848;28;20025;-80
2021/07/31 09:09:01;;;;;;;4.95;2.08;;;20.40;70.20;;;;;;5075649;28;20469;-79
2021/07/31 09:11:28;;;;;;;4.60;1.77;;;20.50;69.60;;;;;;5076710;28;20112;-80
2021/07/31 09:14:13;;;;;;;7.03;2.33;;;20.80;70.60;;;;;;5074696;28;20024;-80
2021/07/31 09:16:41;;;;;;;8.10;2.05;;;21.10;68.30;;;;;;5076018;28;20025;-82
2021/07/31 09:19:11;;;;;;;5.25;1.88;;;21.10;69.00;;;;;;5075863;28;20028;-82
2021/07/31 09:21:37;;;;;;;5.10;1.80;;;21.20;68.90;;;;;;5058655;28;20021;-82
2021/07/31 09:24:23;;;;;;;6.85;2.25;;;21.50;67.90;;;;;;5058525;28;20109;-81
2021/07/31 09:26:51;;;;;;;5.05;1.85;;;21.80;67.50;;;;;;5074190;28;20024;-84
2021/07/31 09:29:18;;;;;;;4.25;1.63;;;22.20;66.70;;;;;;5073457;28;20758;-83
2021/07/31 09:31:49;;;;;;;3.13;1.58;;;22.30;65.40;;;;;;5075409;28;20044;-83
2021/07/31 09:34:43;;;;;;;4.07;1.52;;;22.30;63.30;;;;;;5090161;28;20111;-84
2021/07/31 09:37:18;;;;;;;3.17;1.13;;;22.30;63.00;;;;;;5095969;28;20103;-84
2021/07/31 09:39:54;;;;;;;5.55;1.30;;;22.20;63.10;;;;;;5095988;28;20032;-84
2021/07/31 09:42:28;;;;;;;2.40;1.27;;;22.30;62.60;;;;;;5096017;28;20040;-84
2021/07/31 09:44:54;;;;;;;3.05;1.15;;;22.20;62.60;;;;;;5084746;28;20021;-84
2021/07/31 09:47:20;;;;;;;2.75;1.30;;;22.00;63.00;;;;;;5074216;28;20024;-84
2021/07/31 09:49:46;;;;;;;2.30;1.23;;;21.80;64.10;;;;;;5073901;28;20082;-85
2021/07/31 09:52:22;;;;;;;3.72;1.27;;;21.70;63.90;;;;;;5074203;28;20032;-84
2021/07/31 09:54:48;;;;;;;3.60;1.20;;;21.50;65.40;;;;;;5074014;28;20120;-85
2021/07/31 09:57:15;;;;;;;3.72;1.48;;;21.40;65.10;;;;;;5073946;28;20032;-83
2021/07/31 09:59:47;;;;;;;2.88;1.20;;;21.30;64.80;;;;;;5073881;28;20039;-85
2021/07/31 10:02:21;;;;;;;1.92;1.00;;;21.30;64.70;;;;;;5073884;28;20100;-85
2021/07/31 10:04:47;;;;;;;5.00;1.27;;;21.30;64.80;;;;;;5074609;28;20048;-84
2021/07/31 10:07:15;;;;;;;7.68;1.35;;;21.20;65.00;;;;;;5075038;28;20024;-84
2021/07/31 10:09:45;;;;;;;3.60;1.50;;;21.20;65.40;;;;;;5075126;28;20048;-83
2021/07/31 10:12:15;;;;;;;5.03;1.60;;;21.30;64.70;;;;;;5074881;28;20044;-84
2021/07/31 10:14:42;;;;;;;6.00;1.30;;;21.20;65.50;;;;;;5074922;28;20111;-84
2021/07/31 10:17:12;;;;;;;3.97;1.38;;;21.30;65.30;;;;;;5056940;28;20028;-83
2021/07/31 10:19:45;;;;;;;4.03;0.95;;;21.30;64.10;;;;;;5073329;28;20481;-83
2021/07/31 10:22:13;;;;;;;3.38;1.08;;;21.30;64.10;;;;;;5074507;28;20423;-83
2021/07/31 10:24:54;;;;;;;1.67;1.15;;;21.30;64.70;;;;;;5073411;28;20473;-84
2021/07/31 10:27:23;;;;;;;2.45;1.20;;;21.30;65.30;;;;;;5090228;28;20053;-83
2021/07/31 10:29:49;;;;;;;;;;;21.30;65.20;;;;;;5075057;28;20012;-83
2021/07/31 10:32:21;;;;;;;3.58;1.45;;;21.50;65.30;;;;;;5074772;28;20419;-83
2021/07/31 10:35:00;;;;;;;2.58;1.05;;;21.80;64.40;;;;;;5074588;28;20025;-83
2021/07/31 10:37:32;;;;;;;5.10;1.30;;;22.20;62.50;;;;;;5074421;28;20049;-83
2021/07/31 10:40:08;;;;;;;3.03;1.30;;;22.40;61.80;;;;;;5074426;28;20025;-83
2021/07/31 10:42:51;;;;;;;4.05;1.25;;;22.40;61.40;;;;;;5074475;28;20378;-83
2021/07/31 10:45:18;;;;;;;2.38;0.70;;;22.40;61.70;;;;;;5073956;28;20024;-84
2021/07/31 10:47:51;;;;;;;3.72;0.90;;;22.50;62.00;;;;;;5072435;28;20146;-86
2021/07/31 10:50:23;;;;;;;2.25;1.05;;;22.50;61.50;;;;;;5054218;28;20017;-86
2021/07/31 10:53:00;;;;;;;4.47;1.20;;;22.40;62.00;;;;;;5071255;28;20035;-86
2021/07/31 10:55:35;;;;;;;1.55;1.00;;;22.40;61.30;;;;;;5072890;28;20032;-86
2021/07/31 10:58:11;;;;;;;3.67;1.05;;;22.30;61.50;;;;;;5073853;28;20024;-86
2021/07/31 11:00:42;;;;;;;3.20;1.35;;;22.30;61.80;;;;;;5073197;28;20060;-78
2021/07/31 11:03:27;;;;;;;3.72;1.33;;;22.20;62.30;;;;;;5072968;28;20057;-77
2021/07/31 11:05:55;;;;;;;5.50;1.45;;;22.20;62.10;;;;;;5071874;28;20016;-77
2021/07/31 11:09:02;;;;;;;2.75;1.20;;;22.20;62.90;;;;;;5071628;28;20029;-77
2021/07/31 11:11:28;;;;;;;3.75;0.90;;;22.10;63.20;;;;;;5069706;28;20071;-77
2021/07/31 11:13:54;;;;;;;1.95;1.27;;;22.00;63.80;;;;;;5070591;28;20119;-77
2021/07/31 11:16:21;;;;;;;2.33;1.15;;;21.90;63.70;;;;;;5071900;28;20037;-77
2021/07/31 11:18:54;;;;;;;5.43;1.25;;;21.70;63.70;;;;;;5068618;28;20032;-79
2021/07/31 11:21:32;;;;;;;2.72;1.25;;;21.60;64.20;;;;;;5071839;28;20043;-77
2021/07/31 11:23:57;;;;;;;1.92;0.90;;;21.50;64.00;;;;;;5072738;28;20031;-77
2021/07/31 11:26:51;;;;;;;3.17;1.00;;;21.50;64.10;;;;;;5073369;28;20384;-86
2021/07/31 11:29:25;;;;;;;3.55;1.00;;;21.40;64.00;;;;;;5073524;28;20081;-86
2021/07/31 11:32:01;;;;;;;4.30;1.00;;;21.50;63.40;;;;;;5072866;28;20048;-86
2021/07/31 11:34:26;;;;;;;7.25;1.02;;;21.50;63.10;;;;;;5086750;28;20424;-85
2021/07/31 11:36:57;;;;;;;2.13;0.88;;;21.50;62.80;;;;;;5072389;28;20109;-85
2021/07/31 11:39:24;;;;;;;4.97;1.30;;;21.40;63.10;;;;;;5072274;28;20378;-85
2021/07/31 11:41:50;;;;;;;5.30;1.45;;;21.30;63.10;;;;;;5073820;28;20036;-84
2021/07/31 11:44:30;;;;;;;3.97;1.30;;;21.30;63.90;;;;;;5070964;28;20039;-81
2021/07/31 11:46:56;;;;;;;4.28;1.40;;;21.20;65.50;;;;;;5071877;28;20021;-81
2021/07/31 11:49:25;;;;;;;3.08;1.25;;;21.20;65.90;;;;;;5072694;28;20039;-83
2021/07/31 11:51:55;;;;;;;2.88;1.30;;;21.20;66.60;;;;;;5052624;28;20420;-83
2021/07/31 11:54:21;;;;;;;5.70;1.40;;;21.20;66.90;;;;;;5055804;28;20032;-83
2021/07/31 11:56:47;;;;;;;3.55;1.40;;;21.20;67.00;;;;;;5072516;28;20393;-83
2021/07/31 11:59:23;;;;;;;3.38;1.60;;;21.30;66.90;;;;;;5071382;28;20036;-83
2021/07/31 12:01:52;;;;;;;2.47;1.10;;;21.30;66.60;;;;;;5072716;28;20024;-84
2021/07/31 12:04:47;;;;;;;8.27;1.25;;;21.60;66.20;;;;;;5072475;28;20036;-83
2021/07/31 12:07:17;;;;;;;6.30;1.35;;;21.90;64.90;;;;;;5055234;28;20021;-83
2021/07/31 12:09:56;;;;;;;8.00;1.30;;;22.00;64.50;;;;;;5071408;28;20039;-83
2021/07/31 12:12:33;;;;;;;2.47;1.10;;;22.10;64.50;;;;;;5070862;28;20393;-82
2021/07/31 12:15:26;;;;;;;1.70;1.30;;;22.20;64.30;;;;;;5073225;28;20021;-84
2021/07/31 12:17:55;;;;;;;51.88;2.90;;;22.10;64.60;;;;;;5072975;28;20024;-83
2021/07/31 12:20:43;;;;;;;4.97;1.20;;;22.00;65.20;;;;;;5073052;28;20013;-83
2021/07/31 12:23:14;;;;;;;3.67;1.50;;;22.00;65.50;;;;;;5071272;28;20036;-83
2021/07/31 12:25:59;;;;;;;5.53;1.63;;;22.00;65.80;;;;;;5073098;28;20063;-82
2021/07/31 12:28:37;;;;;;;4.93;1.60;;;22.20;65.90;;;;;;5072859;28;20503;-83
2021/07/31 12:31:23;;;;;;;2.35;1.63;;;22.30;65.60;;;;;;5071781;28;20028;-83
2021/07/31 12:33:48;;;;;;;2.88;1.30;;;22.30;65.30;;;;;;5067316;28;20488;-80
2021/07/31 12:36:14;;;;;;;3.08;1.33;;;22.20;65.50;;;;;;5060052;28;20032;-80
2021/07/31 12:38:40;;;;;;;2.50;1.20;;;22.50;65.60;;;;;;5072134;28;20040;-81
2021/07/31 12:41:05;;;;;;;3.95;1.50;;;22.70;65.40;;;;;;5070512;28;20476;-81
2021/07/31 12:43:32;;;;;;;3.28;1.00;;;23.10;64.00;;;;;;5070353;28;20032;-81
2021/07/31 12:46:00;;;;;;;2.67;1.38;;;23.30;63.40;;;;;;5070174;28;20028;-80
2021/07/31 12:48:26;;;;;;;3.45;1.23;;;23.60;62.90;;;;;;5071605;28;20033;-81
2021/07/31 12:50:52;;;;;;;6.30;1.42;;;23.80;62.20;;;;;;5071233;28;20040;-81